Time;durP1;ratioP1;P1;durP2;ratioP2;P2;SDS_P1;SDS_P2;PMS_P1;PMS_P2;Temp;Humidity;BMP_temperature;BMP_pressure;BME280_temperature;BME280_humidity;BME280_pressure;Samples;Min_cycle;Max_cycle;Signal;HPM_P1;HPM_P2
2022/10/14 00:01:18;;;;;;;7.80;7.10;;;14.00;99.90;;;;;;5095805;28;20423;-46
2022/10/14 00:03:44;;;;;;;8.07;7.27;;;14.00;99.90;;;;;;5095337;28;20523;-45
2022/10/14 00:06:14;;;;;;;12.47;8.40;;;14.00;99.90;;;;;;5087234;28;20450;-44
2022/10/14 00:08:42;;;;;;;9.60;7.77;;;13.90;99.90;;;;;;5086728;28;20517;-44
2022/10/14 00:11:14;;;;;;;8.47;6.73;;;13.90;99.90;;;;;;5095208;28;20457;-46
2022/10/14 00:13:39;;;;;;;7.93;6.93;;;13.90;99.90;;;;;;5096476;28;20502;-46
2022/10/14 00:16:11;;;;;;;7.63;6.83;;;13.90;99.90;;;;;;5096423;28;20407;-45
2022/10/14 00:18:37;;;;;;;7.93;6.83;;;13.90;99.90;;;;;;5095041;28;20212;-45
2022/10/14 00:21:02;;;;;;;7.40;6.70;;;13.90;99.90;;;;;;5096926;28;20416;-46
2022/10/14 00:23:28;;;;;;;7.63;6.93;;;13.90;99.90;;;;;;5097362;28;20251;-46
2022/10/14 00:25:54;;;;;;;7.53;6.90;;;13.90;99.90;;;;;;5098559;28;20169;-44
2022/10/14 00:28:19;;;;;;;7.47;6.73;;;13.90;99.90;;;;;;5098270;28;20176;-43
2022/10/14 00:30:59;;;;;;;8.00;7.17;;;13.90;99.90;;;;;;5098818;28;20181;-45
2022/10/14 00:33:25;;;;;;;7.60;6.93;;;13.90;99.90;;;;;;5098739;28;20189;-45
2022/10/14 00:35:59;;;;;;;7.30;6.70;;;13.90;99.90;;;;;;5099096;28;20415;-45
2022/10/14 00:38:25;;;;;;;8.60;7.33;;;13.80;99.90;;;;;;5099059;28;20533;-43
2022/10/14 00:40:52;;;;;;;6.70;6.10;;;13.80;99.90;;;;;;5098915;28;20407;-43
2022/10/14 00:43:19;;;;;;;7.73;7.03;;;13.80;99.90;;;;;;5099267;28;20506;-45
2022/10/14 00:45:45;;;;;;;7.80;7.00;;;13.80;99.90;;;;;;5098994;28;20844;-45
2022/10/14 00:48:11;;;;;;;8.87;6.80;;;13.80;99.90;;;;;;5099116;28;20413;-43
2022/10/14 00:50:39;;;;;;;7.90;7.10;;;13.80;99.90;;;;;;5098928;28;20177;-44
2022/10/14 00:53:05;;;;;;;7.40;6.70;;;13.80;99.90;;;;;;5099129;28;20477;-47
2022/10/14 00:55:30;;;;;;;6.67;6.07;;;13.80;99.90;;;;;;5090643;28;20430;-44
2022/10/14 00:57:56;;;;;;;6.73;6.23;;;13.80;99.90;;;;;;5099288;28;20237;-43
2022/10/14 01:00:22;;;;;;;7.97;7.17;;;13.80;99.90;;;;;;5080382;28;20563;-47
2022/10/14 01:02:48;;;;;;;8.20;6.97;;;13.80;99.90;;;;;;5079100;28;20187;-44
2022/10/14 01:05:15;;;;;;;10.67;6.03;;;13.80;99.90;;;;;;5085868;28;20182;-46
2022/10/14 01:08:04;;;;;;;8.03;7.33;;;13.80;99.90;;;;;;5098351;28;20173;-45
2022/10/14 01:11:01;;;;;;;8.33;7.50;;;13.90;99.90;;;;;;5081117;28;20431;-43
2022/10/14 01:13:41;;;;;;;8.80;7.30;;;13.80;99.90;;;;;;5084786;28;20428;-43
2022/10/14 01:16:13;;;;;;;7.80;7.07;;;13.80;99.90;;;;;;5078544;28;20497;-45
2022/10/14 01:19:13;;;;;;;7.80;7.00;;;13.80;99.90;;;;;;5078995;28;20449;-43
2022/10/14 01:21:44;;;;;;;9.63;7.63;;;13.80;99.90;;;;;;5077670;28;20426;-44
2022/10/14 01:24:26;;;;;;;9.20;8.30;;;13.80;99.90;;;;;;5078205;28;20493;-44
2022/10/14 01:27:13;;;;;;;11.53;8.10;;;13.80;99.90;;;;;;5077235;28;20430;-43
2022/10/14 01:29:57;;;;;;;9.10;8.20;;;13.80;99.90;;;;;;5077503;28;20429;-43
2022/10/14 01:32:45;;;;;;;8.60;7.70;;;13.80;99.90;;;;;;5078425;28;20576;-43
2022/10/14 01:35:35;;;;;;;8.60;7.70;;;13.80;99.90;;;;;;5078449;28;20457;-43
2022/10/14 01:38:17;;;;;;;9.40;8.20;;;13.80;99.90;;;;;;5077253;28;20461;-44
2022/10/14 01:40:52;;;;;;;10.57;8.20;;;13.80;99.90;;;;;;5078326;28;20682;-44
2022/10/14 01:43:18;;;;;;;10.07;9.07;;;13.80;99.90;;;;;;5060909;28;20712;-43
2022/10/14 01:45:45;;;;;;;9.63;8.60;;;13.80;99.90;;;;;;5078470;28;20892;-43
2022/10/14 01:48:11;;;;;;;9.53;7.80;;;13.80;99.90;;;;;;5076905;28;20425;-45
2022/10/14 01:50:39;;;;;;;9.47;8.47;;;13.90;99.90;;;;;;5077960;28;20446;-43
2022/10/14 01:53:08;;;;;;;9.83;8.83;;;13.80;99.90;;;;;;5077654;28;20412;-43
2022/10/14 01:55:37;;;;;;;9.37;8.57;;;13.80;99.90;;;;;;5077365;28;20459;-45
2022/10/14 01:58:03;;;;;;;9.07;7.80;;;13.90;99.90;;;;;;5076848;28;20491;-45
2022/10/14 02:00:29;;;;;;;9.50;8.30;;;13.90;99.90;;;;;;5077630;28;20432;-45
2022/10/14 02:02:54;;;;;;;8.17;7.37;;;13.90;99.90;;;;;;5077884;28;20702;-44
2022/10/14 02:05:21;;;;;;;9.23;8.20;;;13.90;99.90;;;;;;5078245;28;20178;-46
2022/10/14 02:07:51;;;;;;;11.17;8.20;;;13.90;99.90;;;;;;5077523;28;20447;-44
2022/10/14 02:10:23;;;;;;;8.77;7.60;;;13.90;99.90;;;;;;5076886;28;20447;-45
2022/10/14 02:13:10;;;;;;;9.00;7.00;;;13.90;99.90;;;;;;5077687;28;20443;-44
2022/10/14 02:15:54;;;;;;;10.90;9.80;;;13.90;99.90;;;;;;5077814;28;20818;-45
2022/10/14 02:18:44;;;;;;;8.83;7.73;;;13.90;99.90;;;;;;5076769;28;20546;-42
2022/10/14 02:21:22;;;;;;;10.37;8.70;;;13.90;99.90;;;;;;5076500;28;20416;-45
2022/10/14 02:24:06;;;;;;;10.10;9.07;;;13.90;99.90;;;;;;5077139;28;20436;-43
2022/10/14 02:26:33;;;;;;;8.40;7.60;;;13.90;99.90;;;;;;5077321;28;20704;-45
2022/10/14 02:28:59;;;;;;;9.20;8.30;;;13.90;99.90;;;;;;5076013;28;20865;-45
2022/10/14 02:31:26;;;;;;;9.30;7.80;;;13.90;99.90;;;;;;5076789;28;20432;-44
2022/10/14 02:33:55;;;;;;;11.20;8.67;;;13.90;99.90;;;;;;5076214;28;20416;-46
2022/10/14 02:36:22;;;;;;;8.60;7.80;;;13.90;99.90;;;;;;5075997;28;20454;-45
2022/10/14 02:38:48;;;;;;;9.60;8.70;;;13.90;99.90;;;;;;5076308;28;20524;-44
2022/10/14 02:41:17;;;;;;;8.80;7.90;;;13.90;99.90;;;;;;5077262;28;20428;-45
2022/10/14 02:43:44;;;;;;;10.73;8.73;;;13.90;99.90;;;;;;5075768;28;20566;-45
2022/10/14 02:46:09;;;;;;;8.13;7.43;;;13.90;99.90;;;;;;5076872;28;20432;-44
2022/10/14 02:48:35;;;;;;;7.87;7.17;;;13.90;99.90;;;;;;5076073;28;20418;-46
2022/10/14 02:51:01;;;;;;;8.97;7.70;;;13.90;99.90;;;;;;5074524;28;20286;-43
2022/10/14 02:53:27;;;;;;;8.90;8.00;;;13.90;99.90;;;;;;5076503;28;20467;-45
2022/10/14 02:55:52;;;;;;;8.83;7.93;;;13.90;99.90;;;;;;5075674;28;20427;-45
2022/10/14 02:58:18;;;;;;;7.60;6.90;;;13.80;99.90;;;;;;5075219;28;20294;-46
2022/10/14 03:00:44;;;;;;;8.80;7.77;;;13.80;99.90;;;;;;5074695;28;20290;-44
2022/10/14 03:03:10;;;;;;;8.60;7.70;;;13.80;99.90;;;;;;5074659;28;20268;-44
2022/10/14 03:05:35;;;;;;;9.37;8.53;;;13.80;99.90;;;;;;5075198;28;20186;-45
2022/10/14 03:08:01;;;;;;;9.00;8.13;;;13.80;99.90;;;;;;5075033;28;20209;-43
2022/10/14 03:10:27;;;;;;;9.90;8.90;;;13.80;99.90;;;;;;5073650;28;20219;-45
2022/10/14 03:12:52;;;;;;;10.87;7.90;;;13.80;99.90;;;;;;5073330;28;20316;-44
2022/10/14 03:15:18;;;;;;;9.50;8.60;;;13.80;99.90;;;;;;5075416;28;20205;-45
2022/10/14 03:17:44;;;;;;;8.30;7.20;;;13.80;99.90;;;;;;5075786;28;20286;-43
2022/10/14 03:20:10;;;;;;;9.07;7.80;;;13.80;99.90;;;;;;5075694;28;20186;-42
2022/10/14 03:22:35;;;;;;;11.17;9.13;;;13.80;99.90;;;;;;5075239;28;20276;-43
2022/10/14 03:25:02;;;;;;;8.87;8.10;;;13.80;99.90;;;;;;5075969;28;20495;-44
2022/10/14 03:27:27;;;;;;;8.57;7.77;;;13.80;99.90;;;;;;5075173;28;20166;-44
2022/10/14 03:29:53;;;;;;;9.27;8.47;;;13.80;99.90;;;;;;5074124;28;20431;-45
2022/10/14 03:32:19;;;;;;;12.07;8.60;;;13.70;99.90;;;;;;5074257;28;20187;-43
2022/10/14 03:34:44;;;;;;;8.47;7.67;;;13.70;99.90;;;;;;5073383;28;20225;-42
2022/10/14 03:37:10;;;;;;;8.87;7.97;;;13.70;99.90;;;;;;5080167;28;20523;-46
2022/10/14 03:39:35;;;;;;;10.87;8.60;;;13.70;99.90;;;;;;5074101;28;20243;-43
2022/10/14 03:42:01;;;;;;;10.00;9.00;;;13.70;99.90;;;;;;5078931;28;20192;-43
2022/10/14 03:44:27;;;;;;;8.50;7.60;;;13.70;99.90;;;;;;5096937;28;20169;-46
2022/10/14 03:46:52;;;;;;;9.40;8.20;;;13.70;99.90;;;;;;5098925;28;20567;-46
2022/10/14 03:49:18;;;;;;;8.33;7.53;;;13.70;99.90;;;;;;5097964;28;20181;-46
2022/10/14 03:51:44;;;;;;;8.40;7.60;;;13.70;99.90;;;;;;5090995;28;20300;-43
2022/10/14 03:54:09;;;;;;;8.83;8.00;;;13.70;99.90;;;;;;5082000;28;20209;-43
2022/10/14 03:56:35;;;;;;;8.77;8.07;;;13.70;99.90;;;;;;5080750;28;20239;-45
2022/10/14 03:59:01;;;;;;;11.57;8.07;;;13.70;99.90;;;;;;5087900;28;20743;-44
2022/10/14 04:01:27;;;;;;;11.13;8.90;;;13.70;99.90;;;;;;5084795;28;20412;-43
2022/10/14 04:03:52;;;;;;;9.53;8.03;;;13.70;99.90;;;;;;5077590;28;20212;-43
2022/10/14 04:06:18;;;;;;;8.93;7.90;;;13.70;99.90;;;;;;5075030;28;20576;-43
2022/10/14 04:08:46;;;;;;;9.03;8.23;;;13.70;99.90;;;;;;5075160;28;20185;-45
2022/10/14 04:11:11;;;;;;;9.30;8.40;;;13.70;99.90;;;;;;5072998;28;20186;-42
2022/10/14 04:13:37;;;;;;;8.53;7.60;;;13.70;99.90;;;;;;5075151;28;20418;-45
2022/10/14 04:16:07;;;;;;;8.77;7.97;;;13.60;99.90;;;;;;5074816;28;20316;-44
2022/10/14 04:18:34;;;;;;;8.50;7.27;;;13.60;99.90;;;;;;5072146;28;20217;-46
2022/10/14 04:21:05;;;;;;;8.87;8.07;;;13.60;99.90;;;;;;5074424;28;20480;-44
2022/10/14 04:23:31;;;;;;;10.20;8.23;;;13.60;99.90;;;;;;5074828;28;20447;-43
2022/10/14 04:25:57;;;;;;;8.80;7.50;;;13.60;99.90;;;;;;5073888;28;20424;-43
2022/10/14 04:28:23;;;;;;;7.90;6.83;;;13.60;99.90;;;;;;5074327;28;20815;-44
2022/10/14 04:30:49;;;;;;;8.60;7.90;;;13.60;99.90;;;;;;5074757;28;20517;-43
2022/10/14 04:33:14;;;;;;;9.87;8.87;;;13.60;99.90;;;;;;5075020;28;20178;-46
2022/10/14 04:35:40;;;;;;;8.13;7.33;;;13.60;99.90;;;;;;5074419;28;20198;-45
2022/10/14 04:38:06;;;;;;;9.10;8.20;;;13.60;99.90;;;;;;5074505;28;20210;-46
2022/10/14 04:40:31;;;;;;;8.53;7.63;;;13.60;99.90;;;;;;5075846;28;20182;-42
2022/10/14 04:42:57;;;;;;;9.37;7.80;;;13.60;99.90;;;;;;5076372;28;20203;-44
2022/10/14 04:45:24;;;;;;;8.47;7.57;;;13.60;99.90;;;;;;5075101;28;20325;-45
2022/10/14 04:47:50;;;;;;;9.07;8.27;;;13.60;99.90;;;;;;5075301;28;20819;-44
2022/10/14 04:50:16;;;;;;;8.57;7.80;;;13.60;99.90;;;;;;5074198;28;20438;-44
2022/10/14 04:52:42;;;;;;;7.67;6.77;;;13.60;99.90;;;;;;5072807;28;20696;-44
2022/10/14 04:55:08;;;;;;;8.30;7.53;;;13.60;99.90;;;;;;5073264;28;20838;-43
2022/10/14 04:57:34;;;;;;;8.73;7.13;;;13.60;99.90;;;;;;5073733;28;20667;-43
2022/10/14 04:59:59;;;;;;;10.10;7.43;;;13.60;99.90;;;;;;5072137;28;20574;-44
2022/10/14 05:02:25;;;;;;;7.90;7.10;;;13.60;99.90;;;;;;5071880;28;20489;-43
2022/10/14 05:04:51;;;;;;;8.00;7.30;;;13.50;99.90;;;;;;5073532;28;20186;-53
2022/10/14 05:07:16;;;;;;;9.17;7.53;;;13.50;99.90;;;;;;5072495;28;20536;-45
2022/10/14 05:09:42;;;;;;;7.60;6.90;;;13.50;99.90;;;;;;5070817;28;20568;-44
2022/10/14 05:12:08;;;;;;;8.00;7.20;;;13.50;99.90;;;;;;5072427;28;20581;-43
2022/10/14 05:14:34;;;;;;;9.63;7.30;;;13.50;99.90;;;;;;5074138;28;20454;-43
2022/10/14 05:17:00;;;;;;;8.00;7.00;;;13.50;99.90;;;;;;5071917;28;20204;-44
2022/10/14 05:19:25;;;;;;;11.10;7.67;;;13.50;99.90;;;;;;5068304;28;20456;-44
2022/10/14 05:21:51;;;;;;;7.93;7.13;;;13.50;99.90;;;;;;5071196;28;20430;-43
2022/10/14 05:24:17;;;;;;;10.30;7.30;;;13.50;99.90;;;;;;5074065;28;20170;-44
2022/10/14 05:26:43;;;;;;;8.03;7.30;;;13.50;99.90;;;;;;5072370;28;20519;-45
2022/10/14 05:29:10;;;;;;;8.43;7.37;;;13.50;99.90;;;;;;5070124;28;20182;-43
2022/10/14 05:31:36;;;;;;;9.03;7.97;;;13.40;99.90;;;;;;5067984;28;20197;-44
2022/10/14 05:34:02;;;;;;;8.80;7.30;;;13.50;99.90;;;;;;5070601;28;20686;-43
2022/10/14 05:36:27;;;;;;;10.17;7.90;;;13.50;99.90;;;;;;5078824;28;20223;-44
2022/10/14 05:38:57;;;;;;;9.43;7.53;;;13.50;99.90;;;;;;5092582;28;20456;-46
2022/10/14 05:41:26;;;;;;;8.73;7.93;;;13.50;99.90;;;;;;5093467;28;20435;-46
2022/10/14 05:43:52;;;;;;;8.40;6.73;;;13.50;99.90;;;;;;5090498;28;20455;-43
2022/10/14 05:46:18;;;;;;;7.93;7.13;;;13.50;99.90;;;;;;5090012;28;20942;-46
2022/10/14 05:48:43;;;;;;;7.97;7.20;;;13.50;99.90;;;;;;5085721;28;20555;-44
2022/10/14 05:51:09;;;;;;;8.90;6.83;;;13.50;99.90;;;;;;5088134;28;20498;-44
2022/10/14 05:53:37;;;;;;;8.80;6.90;;;13.50;99.90;;;;;;5087179;28;20263;-44
2022/10/14 05:56:07;;;;;;;8.23;7.53;;;13.50;99.90;;;;;;5090644;28;20171;-44
2022/10/14 05:58:33;;;;;;;6.57;6.00;;;13.50;99.90;;;;;;5089633;28;20491;-44
2022/10/14 06:01:04;;;;;;;8.70;7.30;;;13.50;99.90;;;;;;5090699;28;20778;-46
2022/10/14 06:03:30;;;;;;;7.10;6.50;;;13.60;99.90;;;;;;5093376;28;20212;-48
2022/10/14 06:05:55;;;;;;;7.67;6.97;;;13.60;99.90;;;;;;5093819;28;20418;-46
2022/10/14 06:08:22;;;;;;;7.73;6.63;;;13.60;99.90;;;;;;5093857;28;20180;-43
2022/10/14 06:10:47;;;;;;;7.27;6.57;;;13.70;99.90;;;;;;5092669;28;20272;-44
2022/10/14 06:13:13;;;;;;;11.03;8.77;;;13.70;99.90;;;;;;5090267;28;20505;-44
2022/10/14 06:15:39;;;;;;;12.13;6.03;;;13.80;99.90;;;;;;5089122;28;20193;-44
2022/10/14 06:18:05;;;;;;;7.53;6.73;;;13.80;99.90;;;;;;5092103;28;20525;-46
2022/10/14 06:20:31;;;;;;;6.67;6.07;;;13.80;99.90;;;;;;5093013;28;20427;-46
2022/10/14 06:22:59;;;;;;;7.83;6.63;;;13.90;99.90;;;;;;5092010;28;20245;-47
2022/10/14 06:25:26;;;;;;;6.97;5.90;;;13.90;99.90;;;;;;5094503;28;20185;-45
2022/10/14 06:27:51;;;;;;;6.50;5.90;;;13.90;99.90;;;;;;5094371;28;20415;-45
2022/10/14 06:30:17;;;;;;;6.90;6.17;;;14.00;99.90;;;;;;5094636;28;20821;-43
2022/10/14 06:32:43;;;;;;;6.77;6.07;;;14.00;99.90;;;;;;5094024;28;20511;-45
2022/10/14 06:35:09;;;;;;;9.63;5.90;;;14.10;99.90;;;;;;5094011;28;20181;-43
2022/10/14 06:37:36;;;;;;;6.97;5.93;;;14.10;99.90;;;;;;5094471;28;20581;-43
2022/10/14 06:40:02;;;;;;;6.13;5.60;;;14.20;99.90;;;;;;5096423;28;20429;-43
2022/10/14 06:42:28;;;;;;;7.13;6.20;;;14.30;99.90;;;;;;5094074;28;20527;-44
2022/10/14 06:44:54;;;;;;;6.57;5.97;;;14.40;99.90;;;;;;5093954;28;20502;-44
2022/10/14 06:47:19;;;;;;;6.47;5.87;;;14.50;99.90;;;;;;5094516;28;20177;-44
2022/10/14 06:49:45;;;;;;;6.20;5.70;;;14.70;99.90;;;;;;5095408;28;20415;-45
2022/10/14 06:52:11;;;;;;;7.40;5.77;;;14.80;99.90;;;;;;5095483;28;20536;-43
2022/10/14 06:54:36;;;;;;;7.80;6.13;;;14.90;99.90;;;;;;5094156;28;20250;-44
2022/10/14 06:57:02;;;;;;;6.60;5.90;;;15.00;99.60;;;;;;5093187;28;20230;-46
2022/10/14 06:59:28;;;;;;;10.53;6.43;;;15.10;99.40;;;;;;5094441;28;20230;-44
2022/10/14 07:01:54;;;;;;;7.00;6.40;;;15.20;99.20;;;;;;5093426;28;20234;-43
2022/10/14 07:04:20;;;;;;;6.30;5.70;;;15.20;99.00;;;;;;5094819;28;20189;-44
2022/10/14 07:06:46;;;;;;;6.83;6.20;;;15.20;98.80;;;;;;5094279;28;20426;-43
2022/10/14 07:09:11;;;;;;;4.70;2.50;;;15.20;98.60;;;;;;5093475;28;20417;-47
2022/10/14 07:11:37;;;;;;;3.70;3.17;;;15.40;99.90;;;;;;5093123;28;20391;-45
2022/10/14 07:14:03;;;;;;;3.87;2.63;;;15.80;99.90;;;;;;5093933;28;20458;-45
2022/10/14 07:16:29;;;;;;;4.43;2.90;;;16.30;99.90;;;;;;5095902;28;20586;-43
2022/10/14 07:18:55;;;;;;;5.17;3.10;;;16.70;99.90;;;;;;5095578;28;20223;-47
2022/10/14 07:21:20;;;;;;;4.33;3.73;;;17.00;99.90;;;;;;5093348;28;20413;-45
2022/10/14 07:23:46;;;;;;;4.80;2.80;;;17.40;99.90;;;;;;5096079;28;20181;-43
2022/10/14 07:26:12;;;;;;;4.50;3.83;;;17.60;99.90;;;;;;5094987;28;20606;-43
2022/10/14 07:28:37;;;;;;;6.77;4.70;;;17.80;99.90;;;;;;5096608;28;20200;-43
2022/10/14 07:31:06;;;;;;;5.77;4.63;;;17.80;99.60;;;;;;5096619;28;20178;-44
2022/10/14 07:33:33;;;;;;;5.47;4.83;;;17.70;98.50;;;;;;5098077;28;20438;-47
2022/10/14 07:36:07;;;;;;;5.13;4.73;;;17.70;97.70;;;;;;5095371;28;20425;-46
2022/10/14 07:38:32;;;;;;;6.07;5.50;;;17.60;97.50;;;;;;5091490;28;20963;-43
2022/10/14 07:41:17;;;;;;;8.00;5.83;;;17.50;96.70;;;;;;5090812;28;20798;-44
2022/10/14 07:43:47;;;;;;;7.63;6.60;;;17.50;96.40;;;;;;5094616;28;20498;-44
2022/10/14 07:46:14;;;;;;;5.53;5.03;;;17.40;96.10;;;;;;5093729;28;20686;-44
2022/10/14 07:48:39;;;;;;;6.53;5.93;;;17.40;95.90;;;;;;5074651;28;20546;-43
2022/10/14 07:51:09;;;;;;;6.23;5.17;;;17.40;95.80;;;;;;5092802;28;20567;-49
2022/10/14 07:53:35;;;;;;;6.60;5.40;;;17.40;95.70;;;;;;5091424;28;20500;-43
2022/10/14 07:56:01;;;;;;;4.97;4.57;;;17.50;95.60;;;;;;5091595;28;20480;-44
2022/10/14 07:58:29;;;;;;;5.93;4.17;;;17.60;95.60;;;;;;5091780;28;20831;-44
2022/10/14 08:00:55;;;;;;;5.53;4.97;;;17.80;95.50;;;;;;5092910;28;20415;-45
2022/10/14 08:03:22;;;;;;;6.50;5.57;;;18.10;95.20;;;;;;5093367;28;20523;-45
2022/10/14 08:05:49;;;;;;;6.00;4.93;;;18.40;94.80;;;;;;5093757;28;20411;-44
2022/10/14 08:08:16;;;;;;;5.20;4.70;;;18.70;94.40;;;;;;5077942;28;20439;-45
2022/10/14 08:10:42;;;;;;;6.83;5.00;;;19.00;93.70;;;;;;5094053;28;20443;-44
2022/10/14 08:13:08;;;;;;;7.37;5.60;;;19.10;93.10;;;;;;5086798;28;20454;-43
2022/10/14 08:15:37;;;;;;;6.67;4.83;;;19.30;92.90;;;;;;5087547;28;20440;-46
2022/10/14 08:18:04;;;;;;;5.73;4.60;;;19.30;92.50;;;;;;5092824;28;20228;-45
2022/10/14 08:20:31;;;;;;;5.17;4.30;;;19.40;92.30;;;;;;5090731;28;20439;-45
2022/10/14 08:22:57;;;;;;;4.93;4.10;;;19.40;91.90;;;;;;5092410;28;20443;-43
2022/10/14 08:25:23;;;;;;;5.13;4.63;;;19.50;91.90;;;;;;5093336;28;20474;-44
2022/10/14 08:27:50;;;;;;;4.27;3.87;;;19.60;91.70;;;;;;5090813;28;20223;-43
2022/10/14 08:30:16;;;;;;;5.87;4.43;;;19.70;91.60;;;;;;5076549;28;20449;-46
2022/10/14 08:32:41;;;;;;;4.57;4.17;;;19.90;91.20;;;;;;5094891;28;20424;-47
2022/10/14 08:35:08;;;;;;;7.23;4.23;;;20.00;90.90;;;;;;5097714;28;20470;-45
2022/10/14 08:37:35;;;;;;;4.37;3.97;;;20.20;90.20;;;;;;5096417;28;20182;-43
2022/10/14 08:40:01;;;;;;;5.70;3.90;;;20.30;89.80;;;;;;5097781;28;20459;-43
2022/10/14 08:42:32;;;;;;;4.80;4.40;;;20.30;89.50;;;;;;5099188;28;20413;-44
2022/10/14 08:45:16;;;;;;;6.50;4.50;;;20.30;89.40;;;;;;5083314;28;20427;-43
2022/10/14 08:47:44;;;;;;;5.80;5.20;;;20.30;89.50;;;;;;5075901;28;20414;-46
2022/10/14 08:50:22;;;;;;;5.47;4.47;;;20.30;89.60;;;;;;5058261;28;20494;-46
2022/10/14 08:53:03;;;;;;;4.63;4.20;;;20.20;89.40;;;;;;5077569;28;20421;-44
2022/10/14 08:55:34;;;;;;;4.40;3.73;;;20.10;89.50;;;;;;5073964;28;20715;-44
2022/10/14 08:58:14;;;;;;;8.80;4.10;;;19.90;89.60;;;;;;5092851;28;20611;-43
2022/10/14 09:00:41;;;;;;;4.90;4.40;;;19.80;89.90;;;;;;5094744;28;20445;-46
2022/10/14 09:03:19;;;;;;;4.00;3.70;;;19.60;90.10;;;;;;5083107;28;20423;-44
2022/10/14 09:05:57;;;;;;;4.60;3.50;;;19.50;90.30;;;;;;5072846;28;20435;-45
2022/10/14 09:08:31;;;;;;;5.23;3.73;;;19.30;90.40;;;;;;5070697;28;20432;-43
2022/10/14 09:10:57;;;;;;;4.73;3.77;;;19.30;90.70;;;;;;5055114;28;20450;-45
2022/10/14 09:13:44;;;;;;;5.77;4.20;;;19.30;90.80;;;;;;5072713;28;20460;-44
2022/10/14 09:16:21;;;;;;;4.43;4.03;;;19.40;90.80;;;;;;5073688;28;20438;-44
2022/10/14 09:18:59;;;;;;;3.50;3.20;;;19.70;90.70;;;;;;5076033;28;20570;-44
2022/10/14 09:21:36;;;;;;;3.93;3.53;;;20.10;90.30;;;;;;5076965;28;20411;-43
2022/10/14 09:24:23;;;;;;;4.70;3.83;;;20.70;90.00;;;;;;5077403;28;20443;-44
2022/10/14 09:27:06;;;;;;;5.00;4.00;;;21.40;88.10;;;;;;5075438;28;20512;-45
2022/10/14 09:29:46;;;;;;;4.33;3.93;;;21.80;86.00;;;;;;5085899;28;20440;-46
2022/10/14 09:34:49;;;;;;;4.87;3.90;;;22.00;84.10;;;;;;5089778;28;20557;-45
2022/10/14 09:37:36;;;;;;;5.10;4.00;;;22.10;83.90;;;;;;5086876;28;20438;-45
2022/10/14 09:40:07;;;;;;;4.27;3.63;;;22.30;83.60;;;;;;5092808;28;20447;-43
2022/10/14 09:43:00;;;;;;;6.70;3.80;;;22.50;82.60;;;;;;5095967;28;20418;-43
2022/10/14 09:45:29;;;;;;;4.93;3.60;;;22.60;81.40;;;;;;5091418;28;20417;-44
2022/10/14 09:48:02;;;;;;;4.30;3.87;;;22.80;81.40;;;;;;5084904;28;20780;-45
2022/10/14 09:50:55;;;;;;;4.47;3.30;;;23.10;80.90;;;;;;5086527;28;20545;-45
2022/10/14 09:53:36;;;;;;;4.10;3.43;;;23.40;80.00;;;;;;5075045;28;20919;-47
2022/10/14 09:56:04;;;;;;;4.00;3.60;;;23.50;81.30;;;;;;5091150;28;20522;-46
2022/10/14 09:58:52;;;;;;;4.30;3.90;;;23.60;79.20;;;;;;5113756;28;20473;-45
2022/10/14 10:01:24;;;;;;;4.00;3.60;;;23.60;77.60;;;;;;5111466;28;20494;-47
2022/10/14 10:03:51;;;;;;;3.50;3.20;;;23.60;78.40;;;;;;5115742;28;20882;-45
2022/10/14 10:06:21;;;;;;;4.47;3.50;;;23.50;78.20;;;;;;5099681;28;20806;-44
2022/10/14 10:08:58;;;;;;;4.93;3.53;;;23.40;77.50;;;;;;5076053;28;20456;-44
2022/10/14 10:11:28;;;;;;;3.70;3.37;;;23.30;77.70;;;;;;5088788;28;20446;-48
2022/10/14 10:13:54;;;;;;;4.27;3.70;;;23.20;78.20;;;;;;5075941;28;20510;-49
2022/10/14 10:16:30;;;;;;;4.17;3.30;;;23.10;78.80;;;;;;5076626;28;20563;-44
2022/10/14 10:18:56;;;;;;;4.60;4.17;;;23.00;79.50;;;;;;5081489;28;20459;-46
2022/10/14 10:21:28;;;;;;;4.23;3.63;;;23.00;79.60;;;;;;5074172;28;20759;-44
2022/10/14 10:23:59;;;;;;;3.23;2.93;;;23.00;80.50;;;;;;5086490;28;20485;-47
2022/10/14 10:26:33;;;;;;;4.07;3.33;;;23.00;80.40;;;;;;5092092;28;20432;-46
2022/10/14 10:29:02;;;;;;;4.60;3.90;;;22.90;79.90;;;;;;5092616;28;20526;-45
2022/10/14 10:32:00;;;;;;;4.23;3.83;;;22.80;80.50;;;;;;5092994;28;20540;-48
2022/10/14 10:34:57;;;;;;;4.60;3.60;;;22.80;81.00;;;;;;5092455;28;20474;-44
2022/10/14 10:37:27;;;;;;;4.37;3.97;;;22.60;79.80;;;;;;5071905;28;20683;-50
2022/10/14 10:40:07;;;;;;;4.10;3.80;;;22.40;79.60;;;;;;5078024;28;20500;-46
2022/10/14 10:42:56;;;;;;;5.40;4.20;;;22.20;79.30;;;;;;5094691;28;20404;-46
2022/10/14 10:45:37;;;;;;;4.87;4.13;;;21.90;79.30;;;;;;5093362;28;20427;-46
2022/10/14 10:48:25;;;;;;;4.53;4.10;;;21.70;79.70;;;;;;5093207;28;20739;-45
2022/10/14 10:51:04;;;;;;;5.70;4.07;;;21.40;80.30;;;;;;5090734;28;20540;-47
2022/10/14 10:53:54;;;;;;;6.97;4.37;;;21.20;80.90;;;;;;5091585;28;20469;-44
2022/10/14 10:56:40;;;;;;;4.40;4.00;;;20.90;81.80;;;;;;5091482;28;20468;-44
2022/10/14 10:59:42;;;;;;;4.70;4.30;;;20.70;83.50;;;;;;5093059;28;20462;-47
2022/10/14 11:02:53;;;;;;;6.20;4.17;;;20.60;85.00;;;;;;5058010;28;20518;-44
2022/10/14 11:05:40;;;;;;;5.40;4.03;;;20.40;86.70;;;;;;5028430;28;20601;-45
2022/10/14 11:14:26;;;;;;;4.73;4.10;;;20.60;88.50;;;;;;5092755;28;20426;-45
2022/10/14 11:17:04;;;;;;;7.03;3.13;;;20.60;88.40;;;;;;5072774;28;20434;-45
2022/10/14 11:19:57;;;;;;;3.40;3.10;;;20.70;88.70;;;;;;5070189;28;21079;-45
2022/10/14 11:22:42;;;;;;;4.37;3.33;;;20.70;88.50;;;;;;5082089;28;20425;-46
2022/10/14 11:25:13;;;;;;;5.57;3.60;;;20.80;88.10;;;;;;5089279;28;20490;-45
2022/10/14 11:28:05;;;;;;;3.10;2.70;;;21.10;88.00;;;;;;5090540;28;20460;-45
2022/10/14 11:30:42;;;;;;;4.80;3.40;;;21.50;87.50;;;;;;5085771;28;20441;-45
2022/10/14 11:33:18;;;;;;;3.93;3.53;;;22.00;86.50;;;;;;5090419;28;20473;-44
2022/10/14 11:36:05;;;;;;;3.27;2.97;;;22.30;85.40;;;;;;5089075;28;20450;-46
2022/10/14 11:38:43;;;;;;;3.80;3.07;;;22.70;84.20;;;;;;5104269;28;20488;-45
2022/10/14 11:41:17;;;;;;;4.00;2.73;;;22.80;83.30;;;;;;5106108;28;20470;-44
2022/10/14 11:44:03;;;;;;;3.60;3.30;;;23.00;82.80;;;;;;5071645;28;20408;-46
2022/10/14 11:46:34;;;;;;;4.70;3.23;;;23.10;81.80;;;;;;5089173;28;20443;-45
2022/10/14 11:49:13;;;;;;;3.47;2.90;;;23.10;81.10;;;;;;5090117;28;20427;-45
2022/10/14 11:51:42;;;;;;;5.57;3.33;;;23.20;81.00;;;;;;5088057;28;20497;-49
2022/10/14 11:54:42;;;;;;;3.83;3.03;;;23.40;80.20;;;;;;5089862;28;20829;-45
2022/10/14 11:57:37;;;;;;;4.53;3.03;;;23.60;79.00;;;;;;5088094;28;20430;-45
2022/10/14 12:00:06;;;;;;;3.87;3.17;;;23.80;78.10;;;;;;5089054;28;20457;-48
2022/10/14 12:02:43;;;;;;;3.63;3.33;;;24.00;77.60;;;;;;5091588;28;20510;-46
2022/10/14 12:05:48;;;;;;;3.63;3.03;;;24.10;76.80;;;;;;5091557;28;20743;-46
2022/10/14 12:08:45;;;;;;;3.40;3.10;;;24.20;76.50;;;;;;5075742;28;20483;-46
2022/10/14 12:11:49;;;;;;;3.13;2.70;;;24.10;75.80;;;;;;5091702;28;20443;-47
2022/10/14 12:14:17;;;;;;;2.87;2.60;;;23.90;75.70;;;;;;5098240;28;20434;-47
2022/10/14 12:16:44;;;;;;;3.23;2.93;;;23.50;76.40;;;;;;5094606;28;20462;-45
2022/10/14 12:19:11;;;;;;;2.97;2.40;;;23.20;76.90;;;;;;5096365;28;20606;-45
2022/10/14 12:22:00;;;;;;;2.67;2.47;;;22.80;77.40;;;;;;5092246;28;20505;-45
2022/10/14 12:24:30;;;;;;;4.10;2.70;;;22.60;78.30;;;;;;5092624;28;20408;-46
2022/10/14 12:27:03;;;;;;;3.20;2.43;;;22.60;79.10;;;;;;5092863;28;20417;-44
2022/10/14 12:29:50;;;;;;;4.20;2.60;;;22.80;79.20;;;;;;5090641;28;20411;-46
2022/10/14 12:32:20;;;;;;;2.50;2.30;;;23.00;78.40;;;;;;5094037;28;20485;-44
2022/10/14 12:34:48;;;;;;;2.30;2.00;;;23.00;78.10;;;;;;5092490;28;20480;-45
2022/10/14 12:37:33;;;;;;;2.90;2.60;;;23.00;78.20;;;;;;5092938;28;20557;-45
2022/10/14 12:40:05;;;;;;;2.30;2.10;;;22.90;78.10;;;;;;5092540;28;20532;-43
2022/10/14 12:42:43;;;;;;;2.10;1.90;;;22.80;78.20;;;;;;5094170;28;20689;-44
2022/10/14 12:45:23;;;;;;;3.20;2.07;;;22.70;78.60;;;;;;5094231;28;20417;-44
2022/10/14 12:48:15;;;;;;;2.40;2.10;;;22.50;78.90;;;;;;5094608;28;20864;-46
2022/10/14 12:50:42;;;;;;;2.60;2.00;;;22.30;78.90;;;;;;5090750;28;20425;-47
2022/10/14 12:53:23;;;;;;;2.83;2.00;;;22.10;79.50;;;;;;5093279;28;20534;-45
2022/10/14 12:55:53;;;;;;;2.57;2.00;;;21.80;79.90;;;;;;5090469;28;20417;-47
2022/10/14 12:58:40;;;;;;;2.00;1.90;;;21.60;80.60;;;;;;5088001;28;20928;-45
2022/10/14 13:01:15;;;;;;;4.10;2.40;;;21.30;81.50;;;;;;5080787;28;20550;-45
2022/10/14 13:04:06;;;;;;;3.03;2.53;;;21.10;82.10;;;;;;5094645;28;20424;-47
2022/10/14 13:06:34;;;;;;;2.37;2.13;;;21.00;82.90;;;;;;5089210;28;20450;-45
2022/10/14 13:09:13;;;;;;;2.07;1.87;;;20.90;83.50;;;;;;5093872;28;20443;-46
2022/10/14 13:11:41;;;;;;;1.93;1.67;;;20.80;84.00;;;;;;5090933;28;20486;-45
2022/10/14 13:14:31;;;;;;;2.20;2.00;;;20.70;84.30;;;;;;5095541;28;20691;-44
2022/10/14 13:17:43;;;;;;;3.83;1.97;;;20.70;84.80;;;;;;5090224;28;20542;-45